Time;durP1;ratioP1;P1;durP2;ratioP2;P2;SDS_P1;SDS_P2;PMS_P1;PMS_P2;Temp;Humidity;BMP_temperature;BMP_pressure;BME280_temperature;BME280_humidity;BME280_pressure;Samples;Min_cycle;Max_cycle;Signal;HPM_P1;HPM_P2
2023/04/23 00:01:59;;;;;;;13.27;7.97;;;11.80;80.30;;;;;;5007389;28;20125;-70
2023/04/23 00:04:27;;;;;;;18.52;9.30;;;11.80;80.30;;;;;;5009949;28;20036;-68
2023/04/23 00:06:54;;;;;;;18.42;7.38;;;11.80;80.30;;;;;;5006442;28;20194;-69
2023/04/23 00:09:22;;;;;;;11.43;7.97;;;11.80;80.20;;;;;;4989159;28;20366;-70
2023/04/23 00:11:48;;;;;;;17.20;9.73;;;11.80;80.20;;;;;;4981820;28;20014;-71
2023/04/23 00:14:15;;;;;;;14.95;8.85;;;11.80;80.10;;;;;;5009670;28;20022;-71
2023/04/23 00:16:41;;;;;;;16.50;8.98;;;11.80;80.10;;;;;;5009049;28;20033;-69
2023/04/23 00:19:06;;;;;;;16.33;8.98;;;11.80;80.10;;;;;;5005395;28;20035;-69
2023/04/23 00:21:32;;;;;;;19.13;9.60;;;11.80;80.10;;;;;;4979223;28;20026;-68
2023/04/23 00:23:58;;;;;;;20.05;9.25;;;11.80;80.00;;;;;;4999606;28;20405;-69
2023/04/23 00:26:24;;;;;;;12.27;7.75;;;11.70;80.00;;;;;;4991585;28;20065;-69
2023/04/23 00:28:49;;;;;;;16.77;9.77;;;11.80;80.10;;;;;;4996243;28;20448;-69
2023/04/23 00:31:15;;;;;;;13.82;8.90;;;11.70;80.10;;;;;;4991036;28;20030;-72
2023/04/23 00:33:41;;;;;;;15.63;9.13;;;11.70;80.10;;;;;;5006996;28;20030;-72
2023/04/23 00:36:07;;;;;;;19.00;10.93;;;11.70;80.10;;;;;;4991960;28;20037;-72
2023/04/23 00:38:32;;;;;;;16.25;8.85;;;11.60;80.10;;;;;;5008731;28;20121;-72
2023/04/23 00:40:58;;;;;;;12.60;7.93;;;11.60;80.20;;;;;;4989887;28;20109;-72
2023/04/23 00:43:24;;;;;;;17.80;10.18;;;11.60;80.20;;;;;;5008847;28;20119;-69
2023/04/23 00:45:50;;;;;;;15.75;8.57;;;11.50;80.20;;;;;;4994895;28;20029;-69
2023/04/23 00:48:15;;;;;;;16.75;10.10;;;11.50;80.20;;;;;;4974744;28;20042;-70
2023/04/23 00:50:42;;;;;;;17.70;10.80;;;11.50;80.10;;;;;;5007028;28;20030;-70
2023/04/23 00:53:07;;;;;;;16.08;9.15;;;11.40;80.00;;;;;;4989931;28;20073;-69
2023/04/23 00:55:34;;;;;;;18.98;10.40;;;11.40;80.50;;;;;;5005170;28;20421;-69
2023/04/23 00:58:00;;;;;;;21.42;10.13;;;11.40;80.50;;;;;;5003138;28;20164;-69
2023/04/23 01:00:25;;;;;;;17.30;9.70;;;11.40;80.00;;;;;;5005691;28;20553;-70
2023/04/23 01:02:52;;;;;;;13.77;9.13;;;11.30;80.00;;;;;;5007278;28;20030;-70
2023/04/23 01:05:21;;;;;;;22.27;10.13;;;11.30;80.00;;;;;;5008557;28;20148;-70
2023/04/23 01:07:47;;;;;;;19.80;10.48;;;11.30;80.00;;;;;;4990545;28;20103;-70
2023/04/23 01:10:13;;;;;;;21.90;10.40;;;11.20;79.80;;;;;;4990029;28;20046;-70
2023/04/23 01:12:39;;;;;;;15.00;9.60;;;11.20;79.80;;;;;;5007532;28;20025;-70
2023/04/23 01:15:07;;;;;;;15.18;9.10;;;11.20;79.70;;;;;;5003175;28;20094;-73
2023/04/23 01:17:33;;;;;;;17.83;10.13;;;11.10;79.70;;;;;;5008759;28;20061;-72
2023/04/23 01:20:03;;;;;;;13.63;9.00;;;11.10;79.60;;;;;;4972112;28;20494;-72
2023/04/23 01:22:31;;;;;;;18.90;10.35;;;11.10;79.60;;;;;;5005261;28;20032;-72
2023/04/23 01:24:57;;;;;;;15.45;9.13;;;11.10;79.60;;;;;;5002420;28;20034;-72
2023/04/23 01:27:23;;;;;;;15.30;8.88;;;11.00;79.50;;;;;;5006721;28;20041;-72
2023/04/23 01:29:49;;;;;;;18.30;10.55;;;11.00;79.50;;;;;;5002721;28;20064;-72
2023/04/23 01:32:15;;;;;;;15.48;9.80;;;11.00;79.40;;;;;;5008087;28;20058;-72
2023/04/23 01:34:43;;;;;;;16.45;9.40;;;11.10;79.30;;;;;;5008449;28;20022;-72
2023/04/23 01:37:10;;;;;;;15.75;8.57;;;11.10;79.30;;;;;;5008544;28;20057;-70
2023/04/23 01:39:36;;;;;;;18.02;9.70;;;11.00;79.30;;;;;;5007287;28;20540;-70
2023/04/23 01:42:02;;;;;;;18.73;10.20;;;11.10;79.40;;;;;;5008531;28;20100;-70
2023/04/23 01:44:28;;;;;;;14.90;9.45;;;11.10;79.60;;;;;;5003149;28;20041;-70
2023/04/23 01:46:55;;;;;;;14.70;8.20;;;11.10;79.60;;;;;;5008989;28;20026;-70
2023/04/23 01:49:21;;;;;;;12.23;7.72;;;11.10;79.60;;;;;;5000105;28;20030;-70
2023/04/23 01:51:46;;;;;;;15.73;8.52;;;11.10;79.60;;;;;;5000377;28;20084;-70
2023/04/23 01:54:12;;;;;;;17.15;9.63;;;11.20;79.50;;;;;;5010590;28;20025;-70
2023/04/23 01:56:38;;;;;;;18.15;9.35;;;11.20;79.60;;;;;;5010155;28;20029;-71
2023/04/23 01:59:03;;;;;;;11.27;8.18;;;11.20;79.60;;;;;;4970524;28;20033;-70
2023/04/23 02:01:45;;;;;;;14.18;9.30;;;11.20;79.60;;;;;;5010613;28;20435;-70
2023/04/23 02:04:13;;;;;;;16.48;9.40;;;11.20;79.50;;;;;;5011213;28;20495;-70
2023/04/23 02:06:40;;;;;;;22.67;10.13;;;11.20;79.70;;;;;;5007762;28;20052;-70
2023/04/23 02:09:06;;;;;;;21.17;10.60;;;11.20;79.70;;;;;;5005317;28;20033;-72
2023/04/23 02:11:32;;;;;;;16.75;11.15;;;11.10;79.70;;;;;;4969991;28;20390;-72
2023/04/23 02:13:58;;;;;;;19.80;10.95;;;11.10;79.70;;;;;;5007151;28;20026;-71
2023/04/23 02:16:25;;;;;;;19.55;10.50;;;11.10;79.80;;;;;;5006023;28;20037;-71
2023/04/23 02:18:51;;;;;;;18.15;11.35;;;11.10;79.80;;;;;;5008981;28;20080;-69
2023/04/23 02:21:16;;;;;;;16.67;9.75;;;11.00;79.80;;;;;;4996105;28;20444;-70
2023/04/23 02:23:42;;;;;;;18.40;10.15;;;11.00;79.90;;;;;;4998987;28;20037;-70
2023/04/23 02:26:08;;;;;;;18.13;9.07;;;11.10;79.90;;;;;;4977148;28;20507;-72
2023/04/23 02:28:33;;;;;;;15.80;8.80;;;11.10;79.90;;;;;;5008581;28;20042;-72
2023/04/23 02:30:59;;;;;;;16.55;8.95;;;11.10;79.80;;;;;;5007123;28;20030;-71
2023/04/23 02:33:25;;;;;;;14.57;9.20;;;11.10;79.90;;;;;;4992999;28;20037;-72
2023/04/23 02:35:51;;;;;;;22.77;10.15;;;11.10;79.90;;;;;;4993482;28;20026;-70
2023/04/23 02:38:16;;;;;;;15.77;8.23;;;11.10;80.00;;;;;;5009520;28;20508;-71
2023/04/23 02:40:42;;;;;;;18.02;10.82;;;11.10;80.00;;;;;;4990893;28;20034;-71
2023/04/23 02:43:08;;;;;;;17.73;11.13;;;11.10;80.00;;;;;;5009694;28;20029;-72
2023/04/23 02:45:34;;;;;;;20.60;11.73;;;11.10;80.10;;;;;;5010990;28;20164;-71
2023/04/23 02:48:00;;;;;;;16.33;9.85;;;11.20;80.30;;;;;;5007686;28;20079;-71
2023/04/23 02:50:25;;;;;;;21.05;10.45;;;11.10;80.30;;;;;;4991680;28;20042;-71
2023/04/23 02:52:51;;;;;;;19.10;11.07;;;11.20;80.40;;;;;;4991016;28;20029;-71
2023/04/23 02:55:17;;;;;;;20.15;9.43;;;11.10;80.40;;;;;;5005422;28;20030;-69
2023/04/23 02:57:44;;;;;;;17.42;9.45;;;11.10;80.40;;;;;;4991017;28;20113;-69
2023/04/23 03:00:11;;;;;;;19.73;10.82;;;11.10;80.40;;;;;;5009691;28;20053;-69
2023/04/23 03:02:37;;;;;;;15.48;8.90;;;11.10;80.40;;;;;;5008670;28;20018;-69
2023/04/23 03:05:03;;;;;;;14.00;8.07;;;11.10;80.40;;;;;;5009689;28;20022;-69
2023/04/23 03:07:30;;;;;;;17.75;10.07;;;11.10;80.40;;;;;;5010892;28;20489;-69
2023/04/23 03:09:55;;;;;;;20.27;10.23;;;11.10;80.40;;;;;;5010533;28;20033;-70
2023/04/23 03:12:21;;;;;;;16.60;10.40;;;11.10;80.50;;;;;;5009428;28;20026;-69
2023/04/23 03:14:47;;;;;;;19.02;8.80;;;11.10;80.50;;;;;;5010464;28;20041;-70
2023/04/23 03:17:12;;;;;;;17.38;10.65;;;11.10;80.60;;;;;;4992693;28;20883;-69
2023/04/23 03:19:38;;;;;;;16.50;9.40;;;11.00;80.50;;;;;;5010890;28;20477;-71
2023/04/23 03:22:04;;;;;;;14.35;7.93;;;11.00;80.50;;;;;;4991660;28;20464;-69
2023/04/23 03:24:32;;;;;;;17.13;8.82;;;11.00;80.60;;;;;;4990705;28;20536;-69
2023/04/23 03:26:57;;;;;;;15.00;9.13;;;11.00;80.60;;;;;;5005986;28;20033;-69
2023/04/23 03:29:23;;;;;;;19.38;9.32;;;10.90;80.50;;;;;;5005643;28;20045;-68
2023/04/23 03:31:49;;;;;;;14.27;8.48;;;10.90;80.50;;;;;;5006388;28;20104;-68
2023/04/23 03:34:14;;;;;;;20.85;10.48;;;10.90;80.50;;;;;;5002791;28;20505;-70
2023/04/23 03:36:43;;;;;;;17.85;9.65;;;10.80;80.40;;;;;;5005895;28;20105;-71
2023/04/23 03:39:09;;;;;;;18.52;10.10;;;10.80;80.40;;;;;;4989932;28;20439;-71
2023/04/23 03:41:35;;;;;;;18.95;10.45;;;10.70;80.50;;;;;;5006691;28;20070;-69
2023/04/23 03:44:00;;;;;;;14.05;8.45;;;10.70;80.50;;;;;;5005582;28;20046;-71
2023/04/23 03:46:26;;;;;;;14.00;8.82;;;10.70;80.50;;;;;;4999817;28;20463;-69
2023/04/23 03:48:52;;;;;;;18.15;8.48;;;10.70;80.60;;;;;;5002487;28;20034;-69
2023/04/23 03:51:17;;;;;;;14.88;9.48;;;10.70;80.50;;;;;;5007129;28;20038;-68
2023/04/23 03:53:44;;;;;;;13.10;8.18;;;10.70;80.40;;;;;;5006174;28;20108;-76
2023/04/23 03:56:10;;;;;;;15.50;9.98;;;10.70;80.50;;;;;;5005115;28;20026;-73
2023/04/23 03:58:36;;;;;;;15.85;8.27;;;10.70;80.50;;;;;;4976752;28;20570;-70
2023/04/23 04:01:01;;;;;;;13.70;7.63;;;10.70;80.50;;;;;;5008465;28;20469;-70
2023/04/23 04:03:27;;;;;;;11.40;7.90;;;10.60;80.40;;;;;;5001479;28;20537;-72
2023/04/23 04:05:53;;;;;;;16.02;9.07;;;10.60;80.30;;;;;;5004351;28;20040;-70
2023/04/23 04:08:19;;;;;;;10.05;7.55;;;10.60;80.30;;;;;;5009783;28;20041;-70
2023/04/23 04:10:45;;;;;;;15.68;8.23;;;10.60;80.30;;;;;;5004493;28;20036;-70
2023/04/23 04:13:11;;;;;;;14.68;9.27;;;10.60;80.40;;;;;;4991822;28;20040;-70
2023/04/23 04:15:36;;;;;;;14.52;8.15;;;10.60;80.40;;;;;;5006768;28;20052;-70
2023/04/23 04:18:02;;;;;;;17.98;9.35;;;10.60;80.40;;;;;;4988397;28;20065;-70
2023/04/23 04:20:28;;;;;;;20.85;8.95;;;10.60;80.40;;;;;;5007953;28;20034;-70
2023/04/23 04:22:55;;;;;;;14.82;8.02;;;10.60;80.50;;;;;;5009025;28;20026;-70
2023/04/23 04:25:21;;;;;;;13.95;8.27;;;10.60;80.40;;;;;;5006583;28;20102;-70
2023/04/23 04:27:48;;;;;;;16.15;8.82;;;10.70;80.50;;;;;;5008709;28;20512;-70
2023/04/23 04:30:14;;;;;;;19.00;8.88;;;10.70;80.50;;;;;;4990840;28;20045;-70
2023/04/23 04:32:41;;;;;;;18.30;9.82;;;10.70;80.50;;;;;;5008728;28;20034;-70
2023/04/23 04:35:07;;;;;;;20.80;9.32;;;10.70;80.60;;;;;;5008064;28;20072;-72
2023/04/23 04:37:34;;;;;;;16.90;9.85;;;10.80;80.70;;;;;;4992381;28;20037;-70
2023/04/23 04:40:03;;;;;;;15.35;7.75;;;10.80;80.70;;;;;;4989745;28;20068;-70
2023/04/23 04:42:28;;;;;;;17.98;9.18;;;10.70;80.70;;;;;;5004486;28;20034;-72
2023/04/23 04:44:57;;;;;;;13.82;9.02;;;10.70;80.70;;;;;;4989635;28;20139;-70
2023/04/23 04:47:22;;;;;;;17.45;10.18;;;10.70;80.80;;;;;;5008696;28;20061;-70
2023/04/23 04:49:48;;;;;;;14.75;9.43;;;10.70;80.80;;;;;;4999235;28;20057;-70
2023/04/23 04:52:14;;;;;;;17.88;8.40;;;10.80;80.90;;;;;;5007772;28;20033;-73
2023/04/23 04:54:40;;;;;;;14.30;8.68;;;10.80;80.90;;;;;;4991699;28;20022;-70
2023/04/23 04:57:06;;;;;;;13.63;8.07;;;10.80;80.90;;;;;;5007375;28;20049;-70
2023/04/23 04:59:31;;;;;;;19.60;10.73;;;10.80;80.90;;;;;;5009392;28;20056;-70
2023/04/23 05:01:58;;;;;;;15.00;8.55;;;10.80;81.00;;;;;;4988355;28;20489;-69
2023/04/23 05:04:24;;;;;;;14.50;8.75;;;10.80;81.00;;;;;;5006764;28;20042;-69
2023/04/23 05:06:50;;;;;;;15.32;8.65;;;10.90;80.90;;;;;;5006960;28;20053;-69
2023/04/23 05:09:16;;;;;;;19.98;9.13;;;11.00;80.90;;;;;;4987128;28;20038;-69
2023/04/23 05:11:42;;;;;;;13.00;8.25;;;11.00;80.90;;;;;;4990259;28;20026;-69
2023/04/23 05:14:07;;;;;;;16.48;9.98;;;11.10;81.00;;;;;;5007313;28;20030;-70
2023/04/23 05:16:33;;;;;;;18.48;10.27;;;11.10;81.10;;;;;;5008151;28;20030;-71
2023/04/23 05:18:59;;;;;;;15.93;10.43;;;11.10;81.10;;;;;;5005307;28;20054;-70
2023/04/23 05:21:26;;;;;;;14.38;8.65;;;11.20;81.20;;;;;;5007791;28;20033;-71
2023/04/23 05:23:53;;;;;;;12.07;7.65;;;11.20;81.30;;;;;;5004608;28;20382;-72
2023/04/23 05:26:19;;;;;;;15.80;8.25;;;11.20;81.30;;;;;;5004046;28;20093;-71
2023/04/23 05:28:45;;;;;;;16.80;8.48;;;11.30;81.40;;;;;;5009228;28;20037;-71
2023/04/23 05:31:11;;;;;;;21.10;9.98;;;11.30;81.50;;;;;;5009356;28;20022;-72
2023/04/23 05:33:37;;;;;;;16.35;9.38;;;11.30;81.40;;;;;;4992568;28;20029;-72
2023/04/23 05:36:03;;;;;;;11.57;7.30;;;11.40;81.50;;;;;;4995530;28;20030;-72
2023/04/23 05:38:28;;;;;;;12.55;8.95;;;11.40;81.60;;;;;;4990539;28;20038;-72
2023/04/23 05:40:54;;;;;;;11.98;8.20;;;11.40;81.60;;;;;;4973977;28;20105;-72
2023/04/23 05:43:20;;;;;;;12.02;7.30;;;11.40;81.70;;;;;;5010413;28;20074;-72
2023/04/23 05:45:45;;;;;;;18.33;9.02;;;11.40;81.80;;;;;;5006819;28;20080;-71
2023/04/23 05:48:11;;;;;;;13.13;8.65;;;11.50;81.80;;;;;;4977677;28;20033;-71
2023/04/23 05:50:37;;;;;;;14.00;8.38;;;11.50;81.80;;;;;;5009766;28;20436;-71
2023/04/23 05:53:02;;;;;;;12.98;7.00;;;11.60;81.80;;;;;;5004951;28;20033;-71
2023/04/23 05:55:28;;;;;;;13.70;7.63;;;11.60;81.80;;;;;;5001136;28;20022;-72
2023/04/23 05:57:54;;;;;;;12.77;7.47;;;11.70;81.80;;;;;;4991440;28;20499;-72
2023/04/23 06:00:19;;;;;;;13.00;7.93;;;11.70;81.80;;;;;;4965874;28;20401;-71
2023/04/23 06:02:46;;;;;;;16.17;8.90;;;11.70;81.80;;;;;;5008824;28;20026;-72
2023/04/23 06:05:12;;;;;;;18.05;10.00;;;11.80;81.80;;;;;;4998459;28;20390;-69
2023/04/23 06:07:38;;;;;;;15.95;8.63;;;11.80;81.80;;;;;;5007938;28;20045;-69
2023/04/23 06:10:05;;;;;;;14.80;7.78;;;11.90;81.90;;;;;;4986515;28;20527;-71
2023/04/23 06:12:31;;;;;;;12.38;6.50;;;11.90;81.90;;;;;;4991912;28;20508;-74
2023/04/23 06:14:56;;;;;;;12.23;8.50;;;11.90;81.80;;;;;;4994990;28;20396;-70
2023/04/23 06:17:22;;;;;;;11.95;6.93;;;12.00;81.80;;;;;;5010008;28;20034;-70
2023/04/23 06:19:48;;;;;;;8.40;5.75;;;12.00;81.80;;;;;;4994457;28;20053;-70
2023/04/23 06:22:13;;;;;;;9.25;5.55;;;12.00;81.80;;;;;;4985659;28;20481;-70
2023/04/23 06:24:39;;;;;;;13.18;7.90;;;12.10;81.80;;;;;;4989171;28;20520;-70
2023/04/23 06:27:05;;;;;;;12.10;6.20;;;12.20;81.80;;;;;;4991345;28;20535;-69
2023/04/23 06:29:30;;;;;;;9.25;5.78;;;12.20;81.80;;;;;;5011546;28;20474;-68
2023/04/23 06:32:00;;;;;;;10.63;5.70;;;12.30;81.70;;;;;;5009328;28;20029;-68
2023/04/23 06:34:26;;;;;;;8.45;4.55;;;12.40;81.70;;;;;;5012028;28;20017;-69
2023/04/23 06:36:51;;;;;;;9.23;4.78;;;12.40;81.60;;;;;;5007322;28;20099;-69
2023/04/23 06:39:17;;;;;;;8.73;3.90;;;12.50;81.50;;;;;;5007360;28;20049;-71
2023/04/23 06:41:43;;;;;;;6.70;3.70;;;12.60;81.40;;;;;;5003406;28;20169;-71
2023/04/23 06:44:08;;;;;;;5.78;4.15;;;12.60;81.20;;;;;;4993026;28;20036;-72
2023/04/23 06:46:34;;;;;;;5.57;3.90;;;12.70;81.00;;;;;;5002192;28;20126;-72
2023/04/23 06:49:00;;;;;;;6.90;4.28;;;12.70;80.90;;;;;;5007281;28;20033;-72
2023/04/23 06:51:28;;;;;;;7.25;3.65;;;12.80;80.80;;;;;;5005163;28;20477;-72
2023/04/23 06:53:54;;;;;;;6.68;4.13;;;12.90;80.90;;;;;;5007823;28;20081;-72
2023/04/23 06:56:20;;;;;;;5.38;3.40;;;13.00;80.90;;;;;;4983383;28;20062;-72
2023/04/23 06:58:46;;;;;;;7.95;4.95;;;13.00;80.80;;;;;;5008953;28;20088;-72
2023/04/23 07:01:12;;;;;;;6.47;3.50;;;13.10;80.80;;;;;;4993162;28;20428;-72
2023/04/23 07:03:38;;;;;;;5.10;3.78;;;13.20;80.80;;;;;;5011005;28;20024;-72
2023/04/23 07:06:04;;;;;;;6.72;3.55;;;13.20;80.70;;;;;;5004150;28;20759;-70
2023/04/23 07:08:30;;;;;;;4.43;3.70;;;13.30;80.60;;;;;;4989037;28;20050;-68
2023/04/23 07:10:56;;;;;;;6.47;3.95;;;13.40;80.50;;;;;;5007181;28;20057;-69
2023/04/23 07:13:22;;;;;;;5.50;3.35;;;13.40;80.40;;;;;;5010134;28;20068;-70
2023/04/23 07:15:48;;;;;;;7.43;3.88;;;13.50;80.50;;;;;;4990477;28;20389;-72
2023/04/23 07:18:17;;;;;;;5.53;3.58;;;13.50;80.30;;;;;;4990151;28;20025;-71
2023/04/23 07:20:42;;;;;;;3.63;2.97;;;13.60;80.10;;;;;;5011158;28;20030;-74
2023/04/23 07:23:08;;;;;;;6.38;3.55;;;13.70;80.10;;;;;;5010316;28;20461;-72
2023/04/23 07:25:34;;;;;;;7.47;3.50;;;13.80;80.00;;;;;;5007778;28;20030;-72
2023/04/23 07:27:59;;;;;;;3.58;2.85;;;13.80;79.80;;;;;;4991202;28;20042;-71
2023/04/23 07:30:26;;;;;;;5.90;3.65;;;13.90;79.70;;;;;;5005821;28;20112;-73
2023/04/23 07:32:52;;;;;;;5.35;2.92;;;14.00;79.60;;;;;;4990084;28;20686;-75
2023/04/23 07:35:18;;;;;;;3.55;2.78;;;14.00;79.30;;;;;;4987321;28;20417;-73
2023/04/23 07:37:44;;;;;;;5.35;2.88;;;14.10;79.30;;;;;;5005733;28;20049;-74
2023/04/23 07:40:09;;;;;;;3.88;2.78;;;14.20;79.10;;;;;;4989980;28;20401;-73
2023/04/23 07:42:35;;;;;;;6.80;3.78;;;14.30;79.00;;;;;;4988720;28;20058;-81
2023/04/23 07:45:01;;;;;;;7.82;4.78;;;14.30;79.00;;;;;;5008901;28;20392;-72
2023/04/23 07:47:26;;;;;;;5.80;3.55;;;14.30;79.00;;;;;;5006765;28;20168;-73
2023/04/23 07:49:52;;;;;;;8.95;4.18;;;14.30;79.00;;;;;;4992772;28;20037;-77
2023/04/23 07:52:18;;;;;;;4.30;3.30;;;14.40;79.00;;;;;;5010638;28;20068;-67
2023/04/23 07:54:45;;;;;;;5.85;3.72;;;14.40;78.90;;;;;;5007867;28;20080;-68
2023/04/23 07:57:11;;;;;;;8.85;4.05;;;14.50;78.60;;;;;;5003722;28;20022;-69
2023/04/23 07:59:38;;;;;;;5.68;3.72;;;14.60;78.60;;;;;;5009255;28;20045;-68
2023/04/23 08:02:04;;;;;;;5.10;2.80;;;14.70;78.90;;;;;;5003551;28;20190;-68
2023/04/23 08:04:30;;;;;;;3.63;2.40;;;14.80;78.20;;;;;;5006642;28;20083;-70
2023/04/23 08:06:55;;;;;;;5.53;2.92;;;14.80;77.80;;;;;;4988084;28;20060;-70
2023/04/23 08:09:21;;;;;;;7.53;3.90;;;14.90;77.80;;;;;;4998014;28;20038;-70
2023/04/23 08:11:47;;;;;;;3.85;2.60;;;15.00;77.70;;;;;;4982140;28;20444;-70
2023/04/23 08:14:13;;;;;;;8.25;4.20;;;15.00;77.60;;;;;;5001601;28;20037;-70
2023/04/23 08:16:39;;;;;;;4.50;2.95;;;15.10;77.20;;;;;;4981704;28;20140;-70
2023/04/23 08:19:05;;;;;;;3.45;2.40;;;15.20;77.10;;;;;;4985984;28;20326;-71
2023/04/23 08:21:31;;;;;;;4.22;2.53;;;15.30;77.00;;;;;;4986581;28;20128;-71
2023/04/23 08:23:57;;;;;;;5.93;2.67;;;15.40;76.80;;;;;;4989077;28;20037;-70
2023/04/23 08:26:23;;;;;;;5.20;2.90;;;15.40;76.40;;;;;;5001423;28;20033;-70
2023/04/23 08:28:49;;;;;;;5.57;3.40;;;15.50;76.30;;;;;;4991585;28;20451;-70
2023/04/23 08:31:16;;;;;;;4.40;2.70;;;15.50;75.90;;;;;;5007639;28;20032;-71
2023/04/23 08:33:41;;;;;;;3.88;2.78;;;15.60;76.10;;;;;;4999331;28;20055;-71
2023/04/23 08:36:08;;;;;;;4.07;2.70;;;15.70;75.70;;;;;;4999976;28;20336;-71
2023/04/23 08:38:34;;;;;;;5.78;2.35;;;15.80;75.50;;;;;;5006274;28;20037;-72
2023/04/23 08:41:03;;;;;;;3.58;2.42;;;15.90;75.40;;;;;;4989212;28;20018;-70
2023/04/23 08:43:51;;;;;;;3.53;2.10;;;16.00;75.20;;;;;;4991952;28;20057;-71
2023/04/23 08:46:18;;;;;;;3.95;1.92;;;16.20;74.70;;;;;;5007939;28;20026;-70
2023/04/23 08:48:44;;;;;;;3.05;2.53;;;16.20;74.40;;;;;;4992008;28;20018;-68
2023/04/23 08:51:15;;;;;;;6.15;2.60;;;16.20;74.10;;;;;;5005899;28;20029;-70
2023/04/23 08:53:44;;;;;;;4.13;2.53;;;16.20;74.30;;;;;;5003275;28;20034;-71
2023/04/23 08:56:12;;;;;;;6.25;3.38;;;16.30;74.10;;;;;;4998441;28;20069;-69
2023/04/23 08:58:39;;;;;;;2.63;1.83;;;16.40;73.60;;;;;;5004403;28;20065;-69
2023/04/23 09:01:06;;;;;;;3.25;2.05;;;16.50;73.50;;;;;;5009113;28;20029;-69
2023/04/23 09:03:33;;;;;;;2.83;1.70;;;16.60;72.90;;;;;;4990352;28;20304;-69
2023/04/23 09:05:59;;;;;;;2.97;2.67;;;16.70;72.50;;;;;;5001447;28;20030;-70
2023/04/23 09:08:25;;;;;;;1.60;1.40;;;16.70;72.10;;;;;;4983624;28;20065;-70
2023/04/23 09:10:54;;;;;;;4.38;1.75;;;16.80;72.30;;;;;;5003024;28;20037;-71
2023/04/23 09:13:21;;;;;;;2.60;1.52;;;16.90;72.10;;;;;;5002188;28;20034;-70
2023/04/23 09:15:47;;;;;;;4.03;2.10;;;17.00;71.70;;;;;;4995772;28;20028;-70
2023/04/23 09:18:13;;;;;;;6.78;1.90;;;17.20;71.50;;;;;;5013466;28;20552;-70
2023/04/23 09:20:38;;;;;;;1.88;1.33;;;17.40;71.40;;;;;;5012397;28;20037;-71
2023/04/23 09:23:07;;;;;;;1.60;1.42;;;17.40;69.90;;;;;;5013614;28;20587;-70
2023/04/23 09:25:33;;;;;;;1.73;1.05;;;17.50;69.90;;;;;;5006638;28;20420;-70
2023/04/23 09:28:02;;;;;;;3.15;1.25;;;17.50;69.30;;;;;;4990974;28;20034;-71
2023/04/23 09:30:28;;;;;;;5.13;1.70;;;17.60;68.90;;;;;;5003614;28;20041;-71
2023/04/23 09:32:54;;;;;;;1.83;1.65;;;17.70;67.90;;;;;;5010656;28;20543;-71
2023/04/23 09:35:19;;;;;;;2.15;0.90;;;17.80;67.80;;;;;;4991602;28;20084;-71
2023/04/23 09:37:48;;;;;;;3.10;1.27;;;17.80;67.70;;;;;;5008525;28;20018;-71
2023/04/23 09:40:25;;;;;;;8.80;1.60;;;17.90;67.40;;;;;;5005519;28;20063;-71
2023/04/23 09:42:53;;;;;;;2.08;1.50;;;17.90;66.90;;;;;;5007128;28;20014;-71
2023/04/23 09:45:19;;;;;;;2.22;1.15;;;17.90;66.60;;;;;;5006136;28;20056;-71
2023/04/23 09:47:52;;;;;;;1.90;0.88;;;18.10;66.70;;;;;;5013112;28;20469;-71
2023/04/23 09:50:30;;;;;;;4.20;1.13;;;18.20;66.50;;;;;;5012340;28;20113;-71
2023/04/23 09:52:55;;;;;;;1.83;1.23;;;18.30;65.60;;;;;;5008158;28;20083;-71
2023/04/23 09:55:40;;;;;;;1.60;1.13;;;18.50;65.40;;;;;;5010713;28;20022;-71
2023/04/23 09:58:16;;;;;;;1.63;1.42;;;18.50;64.40;;;;;;5011214;28;20431;-71
2023/04/23 10:00:42;;;;;;;1.38;1.00;;;18.60;63.60;;;;;;5009800;28;20022;-71
2023/04/23 10:03:09;;;;;;;11.27;1.35;;;18.60;62.70;;;;;;5010469;28;20037;-68
2023/04/23 10:05:42;;;;;;;3.03;1.17;;;18.70;62.80;;;;;;5010218;28;20022;-69
2023/04/23 10:08:08;;;;;;;2.08;1.20;;;18.70;61.80;;;;;;5005685;28;20493;-69
2023/04/23 10:10:35;;;;;;;1.17;0.80;;;18.70;62.00;;;;;;5009479;28;20037;-69
2023/04/23 10:13:01;;;;;;;4.47;1.00;;;18.70;61.60;;;;;;5008968;28;20030;-71
2023/04/23 10:15:27;;;;;;;1.95;1.08;;;18.70;61.00;;;;;;5009803;28;20046;-71
2023/04/23 10:17:54;;;;;;;2.60;0.70;;;18.80;61.00;;;;;;5008933;28;20034;-71
2023/04/23 10:20:21;;;;;;;1.05;0.68;;;18.90;60.60;;;;;;5009138;28;20033;-68
2023/04/23 10:22:47;;;;;;;0.95;0.60;;;19.10;60.50;;;;;;5011247;28;20026;-68
2023/04/23 10:25:14;;;;;;;2.70;0.95;;;19.40;60.00;;;;;;4992715;28;20148;-69
2023/04/23 10:27:41;;;;;;;0.70;0.60;;;19.50;58.60;;;;;;5001718;28;20487;-68
2023/04/23 10:30:10;;;;;;;1.20;0.63;;;19.60;58.30;;;;;;5007141;28;20389;-69
2023/04/23 10:32:37;;;;;;;0.60;0.50;;;19.70;58.30;;;;;;4990625;28;20033;-69
2023/04/23 10:35:05;;;;;;;2.50;0.85;;;19.70;57.30;;;;;;5010785;28;20030;-68
2023/04/23 10:37:31;;;;;;;1.92;0.85;;;19.70;57.60;;;;;;5011662;28;20042;-69
2023/04/23 10:40:08;;;;;;;0.90;0.90;;;19.70;57.10;;;;;;5010958;28;20160;-69
2023/04/23 10:42:34;;;;;;;1.00;0.50;;;19.80;57.20;;;;;;4984958;28;20042;-69
2023/04/23 10:44:59;;;;;;;2.58;0.88;;;20.00;56.80;;;;;;4986561;28;20088;-69
2023/04/23 10:47:25;;;;;;;3.90;0.85;;;20.00;55.70;;;;;;5009966;28;20405;-69
2023/04/23 10:49:51;;;;;;;2.45;1.00;;;19.90;54.90;;;;;;5007446;28;20037;-71
2023/04/23 10:52:17;;;;;;;1.77;0.90;;;19.90;55.70;;;;;;5008581;28;20529;-68
2023/04/23 10:54:47;;;;;;;1.02;0.55;;;19.90;56.70;;;;;;5011262;28;20022;-68
2023/04/23 10:57:13;;;;;;;1.15;0.60;;;19.80;56.30;;;;;;5009382;28;20030;-69
2023/04/23 10:59:57;;;;;;;1.85;1.08;;;19.70;55.80;;;;;;5004927;28;20042;-68
2023/04/23 11:02:24;;;;;;;0.68;0.68;;;19.60;55.90;;;;;;4992390;28;20088;-71
2023/04/23 11:04:58;;;;;;;0.98;0.80;;;19.50;55.30;;;;;;5007151;28;20121;-71
2023/04/23 11:07:31;;;;;;;0.77;0.70;;;19.40;55.10;;;;;;4987541;28;20038;-72
2023/04/23 11:10:10;;;;;;;2.85;0.77;;;19.40;55.50;;;;;;5005164;28;21796;-72
2023/04/23 11:12:38;;;;;;;0.47;0.47;;;19.30;55.60;;;;;;5002074;28;20457;-69
2023/04/23 11:15:17;;;;;;;1.67;0.60;;;19.40;55.20;;;;;;5009018;28;20097;-70
2023/04/23 11:17:43;;;;;;;0.82;0.50;;;19.60;54.30;;;;;;5002848;28;20029;-68
2023/04/23 11:20:15;;;;;;;1.27;0.65;;;19.70;54.00;;;;;;5000198;28;20037;-67
2023/04/23 11:22:46;;;;;;;;;;;20.00;53.30;;;;;;5009264;28;20057;-70
2023/04/23 11:25:13;;;;;;;0.50;0.43;;;20.20;53.30;;;;;;5006477;28;19922;-70
2023/04/23 11:27:41;;;;;;;0.75;0.60;;;20.30;52.30;;;;;;4985146;28;20046;-71
2023/04/23 11:30:19;;;;;;;0.50;0.50;;;20.40;51.70;;;;;;4987873;28;20030;-71
2023/04/23 11:32:49;;;;;;;0.77;0.75;;;20.30;51.30;;;;;;5002789;28;20037;-68
2023/04/23 11:35:19;;;;;;;0.88;0.68;;;20.00;51.30;;;;;;5007059;28;20030;-67
2023/04/23 11:37:47;;;;;;;1.13;0.60;;;19.80;52.00;;;;;;5011714;28;20034;-67
2023/04/23 11:40:18;;;;;;;1.25;0.70;;;19.60;51.80;;;;;;5009225;28;20495;-68
2023/04/23 11:42:48;;;;;;;1.17;0.70;;;19.50;51.80;;;;;;5010273;28;20116;-67
2023/04/23 11:45:21;;;;;;;0.75;0.50;;;19.40;52.40;;;;;;5009636;28;20033;-68
2023/04/23 11:47:55;;;;;;;1.25;0.60;;;19.50;52.70;;;;;;4987763;28;20033;-69
2023/04/23 11:50:29;;;;;;;2.92;0.55;;;19.50;52.70;;;;;;4989906;28;20447;-71
2023/04/23 11:52:55;;;;;;;1.50;0.50;;;19.60;52.90;;;;;;4991755;28;20536;-71
2023/04/23 11:55:22;;;;;;;0.32;0.32;;;19.70;53.10;;;;;;5003805;28;20030;-69
2023/04/23 11:57:50;;;;;;;2.00;0.70;;;19.90;53.30;;;;;;5011171;28;20029;-71
2023/04/23 12:00:18;;;;;;;1.25;0.60;;;20.00;52.70;;;;;;4993030;28;20026;-68
2023/04/23 12:02:54;;;;;;;2.58;0.73;;;20.10;53.00;;;;;;5011593;28;20030;-72
2023/04/23 12:05:43;;;;;;;3.17;0.60;;;20.30;53.30;;;;;;4991005;28;20026;-68
2023/04/23 12:08:11;;;;;;;0.82;0.80;;;20.50;52.60;;;;;;5000584;28;20048;-68
2023/04/23 12:10:50;;;;;;;1.35;0.65;;;20.50;52.70;;;;;;5005631;28;20524;-69
2023/04/23 12:13:23;;;;;;;0.63;0.63;;;20.60;52.10;;;;;;5011084;28;20432;-72
2023/04/23 12:15:58;;;;;;;2.17;0.90;;;20.60;50.70;;;;;;5002994;28;20018;-71
2023/04/23 12:18:30;;;;;;;2.00;0.65;;;20.40;50.80;;;;;;5005145;28;20076;-69
2023/04/23 12:21:07;;;;;;;1.40;0.60;;;20.20;51.10;;;;;;5010821;28;20108;-68
2023/04/23 12:23:36;;;;;;;1.60;0.55;;;20.10;52.60;;;;;;5006916;28;20579;-72
2023/04/23 12:26:02;;;;;;;1.33;0.70;;;20.10;52.60;;;;;;5010634;28;20084;-69
2023/04/23 12:28:28;;;;;;;1.85;0.85;;;20.00;53.00;;;;;;4992295;28;20034;-71
2023/04/23 12:31:02;;;;;;;1.02;0.40;;;20.10;53.20;;;;;;5010099;28;20038;-72
2023/04/23 12:33:29;;;;;;;2.10;0.52;;;20.00;53.30;;;;;;4993097;28;20034;-71
2023/04/23 12:35:55;;;;;;;0.95;0.85;;;20.10;54.00;;;;;;5010340;28;20084;-70
2023/04/23 12:38:26;;;;;;;3.10;0.47;;;20.10;54.30;;;;;;5010649;28;20110;-69
2023/04/23 12:40:57;;;;;;;2.65;0.63;;;20.20;54.40;;;;;;5007462;28;20054;-69